createdAt,value
2022-12-09T00:02:22.599Z,39.50
2022-12-09T00:04:51.362Z,36.25
2022-12-09T00:07:20.211Z,35.33
2022-12-09T00:09:48.789Z,37.25
2022-12-09T00:12:18.421Z,38.50
2022-12-09T00:14:47.014Z,37.50
2022-12-09T00:17:16.079Z,38.00
2022-12-09T00:19:44.572Z,37.67
2022-12-09T00:22:13.893Z,35.00
2022-12-09T00:24:42.236Z,39.00
2022-12-09T00:27:10.837Z,40.50
2022-12-09T00:29:39.209Z,35.25
2022-12-09T00:32:09.091Z,38.75
2022-12-09T00:34:38.132Z,36.50
2022-12-09T00:37:10.157Z,38.00
2022-12-09T00:39:38.673Z,38.00
2022-12-09T00:42:07.479Z,38.75
2022-12-09T00:44:35.721Z,37.00
2022-12-09T00:47:04.501Z,38.67
2022-12-09T00:49:32.799Z,42.00
2022-12-09T00:52:03.212Z,37.33
2022-12-09T00:54:32.003Z,35.67
2022-12-09T00:57:02.309Z,37.50
2022-12-09T00:59:30.819Z,38.75
2022-12-09T01:01:59.759Z,38.33
2022-12-09T01:04:28.914Z,37.00
2022-12-09T01:06:58.127Z,39.00
2022-12-09T01:09:29.307Z,39.25
2022-12-09T01:11:57.974Z,35.50
2022-12-09T01:14:26.269Z,40.50
2022-12-09T01:16:55.275Z,37.00
2022-12-09T01:19:23.556Z,39.50
2022-12-09T01:21:55.687Z,36.50
2022-12-09T01:24:23.875Z,40.50
2022-12-09T01:26:52.505Z,37.25
2022-12-09T01:29:21.199Z,37.00
2022-12-09T01:31:55.372Z,36.50
2022-12-09T01:34:23.995Z,38.75
2022-12-09T01:36:54.626Z,39.67
2022-12-09T01:39:24.612Z,38.00
2022-12-09T01:41:53.513Z,36.00
2022-12-09T01:44:24.535Z,37.75
2022-12-09T01:47:02.472Z,37.75
2022-12-09T01:49:43.434Z,36.75
2022-12-09T01:52:21.953Z,36.33
2022-12-09T01:54:52.765Z,40.00
2022-12-09T01:57:21.840Z,38.50
2022-12-09T01:59:50.516Z,37.00
2022-12-09T02:02:20.831Z,38.25
2022-12-09T02:04:51.059Z,37.67
2022-12-09T02:07:21.225Z,39.00
2022-12-09T02:09:53.756Z,40.25
2022-12-09T02:12:58.157Z,36.00
2022-12-09T02:15:48.908Z,37.75
2022-12-09T02:18:26.377Z,39.75
2022-12-09T02:21:02.614Z,35.75
2022-12-09T02:23:49.249Z,38.00
2022-12-09T02:26:44.597Z,35.50
2022-12-09T02:29:41.234Z,37.50
2022-12-09T02:32:13.049Z,36.75
2022-12-09T02:34:56.565Z,37.50
2022-12-09T02:37:34.007Z,36.00
2022-12-09T02:40:08.689Z,36.75
2022-12-09T02:42:43.177Z,38.33
2022-12-09T02:45:15.261Z,35.25
2022-12-09T02:47:51.972Z,37.00
2022-12-09T02:50:27.277Z,35.25
2022-12-09T02:52:57.408Z,37.25
2022-12-09T02:55:30.570Z,37.75
2022-12-09T02:58:02.567Z,37.67
2022-12-09T03:00:35.836Z,35.75
2022-12-09T03:03:06.367Z,33.50
2022-12-09T03:06:16.850Z,36.50
2022-12-09T03:08:55.284Z,39.75
2022-12-09T03:11:25.588Z,36.00
2022-12-09T03:14:00.355Z,36.00
2022-12-09T03:16:50.505Z,37.00
2022-12-09T03:19:32.556Z,36.00
2022-12-09T03:22:05.963Z,35.00
2022-12-09T03:24:42.201Z,35.75
2022-12-09T03:27:12.820Z,34.75
2022-12-09T03:29:43.355Z,34.00
2022-12-09T03:32:14.838Z,37.33
2022-12-09T03:34:44.983Z,36.25
2022-12-09T03:37:16.202Z,33.75
2022-12-09T03:39:45.707Z,36.00
2022-12-09T03:42:22.637Z,32.67
2022-12-09T03:45:01.295Z,35.50
2022-12-09T03:47:35.080Z,35.75
2022-12-09T03:50:04.445Z,35.25
2022-12-09T03:52:43.139Z,34.00
2022-12-09T03:55:28.506Z,35.50
2022-12-09T03:57:59.325Z,32.00
2022-12-09T04:00:28.151Z,33.75
2022-12-09T04:02:57.385Z,34.00
2022-12-09T04:05:25.882Z,35.00
2022-12-09T04:07:54.791Z,34.50
2022-12-09T04:10:23.127Z,33.50
2022-12-09T04:12:51.545Z,32.67
2022-12-09T04:15:19.976Z,32.00
2022-12-09T04:17:49.161Z,29.75
2022-12-09T04:20:17.550Z,31.50
2022-12-09T04:22:45.897Z,34.00
2022-12-09T04:25:15.693Z,32.75
2022-12-09T04:27:44.315Z,30.00
2022-12-09T04:30:13.586Z,28.50
2022-12-09T04:32:42.649Z,29.25
2022-12-09T04:35:12.528Z,31.75
2022-12-09T04:37:41.368Z,27.25
2022-12-09T04:40:10.281Z,30.00
2022-12-09T04:42:39.022Z,31.00
2022-12-09T04:45:07.890Z,29.25
2022-12-09T04:47:36.708Z,29.75
2022-12-09T04:50:06.789Z,28.33
2022-12-09T04:52:36.200Z,29.00
2022-12-09T04:55:04.552Z,29.50
2022-12-09T04:57:33.265Z,27.00
2022-12-09T05:00:01.406Z,28.33
2022-12-09T05:02:31.454Z,28.75
2022-12-09T05:05:02.679Z,25.67
2022-12-09T05:07:32.147Z,26.75
2022-12-09T05:10:00.752Z,26.00
2022-12-09T05:12:30.361Z,26.50
2022-12-09T05:14:59.026Z,24.33
2022-12-09T05:17:28.282Z,26.50
2022-12-09T05:19:56.870Z,25.75
2022-12-09T05:22:25.656Z,25.50
2022-12-09T05:24:53.690Z,25.67
2022-12-09T05:27:23.476Z,24.25
2022-12-09T05:29:52.060Z,23.00
2022-12-09T05:32:22.248Z,24.00
2022-12-09T05:34:51.218Z,24.25
2022-12-09T05:37:20.075Z,21.75
2022-12-09T05:39:48.674Z,23.75
2022-12-09T05:42:17.204Z,25.33
2022-12-09T05:44:45.465Z,24.50
2022-12-09T05:47:14.218Z,25.75
2022-12-09T05:49:43.101Z,23.25
2022-12-09T05:52:14.517Z,25.75
2022-12-09T05:54:43.107Z,23.50
2022-12-09T05:57:12.225Z,23.00
2022-12-09T05:59:40.428Z,23.50
2022-12-09T06:02:10.391Z,23.00
2022-12-09T06:04:39.266Z,24.50
2022-12-09T06:07:09.549Z,23.00
2022-12-09T06:09:38.126Z,22.50
2022-12-09T06:12:07.847Z,24.75
2022-12-09T06:14:36.110Z,22.25
2022-12-09T06:17:04.717Z,21.25
2022-12-09T06:19:33.372Z,21.75
2022-12-09T06:22:02.172Z,20.25
2022-12-09T06:24:31.381Z,21.50
2022-12-09T06:27:01.544Z,21.50
2022-12-09T06:29:30.159Z,22.00
2022-12-09T06:32:00.312Z,21.50
2022-12-09T06:34:30.588Z,21.50
2022-12-09T06:36:59.466Z,21.00
2022-12-09T06:39:27.921Z,21.33
2022-12-09T06:41:57.175Z,20.00
2022-12-09T06:44:25.819Z,20.75
2022-12-09T06:46:55.387Z,21.75
2022-12-09T06:49:24.029Z,22.00
2022-12-09T06:51:53.373Z,21.50
2022-12-09T06:54:21.900Z,22.00
2022-12-09T06:56:50.841Z,21.67
2022-12-09T06:59:20.575Z,20.50
2022-12-09T07:01:49.595Z,22.00
2022-12-09T07:04:18.776Z,20.33
2022-12-09T07:06:48.011Z,20.33
2022-12-09T07:09:20.139Z,21.75
2022-12-09T07:11:49.661Z,22.00
2022-12-09T07:14:19.306Z,25.00
2022-12-09T07:16:48.595Z,22.00
2022-12-09T07:19:19.350Z,20.25
2022-12-09T07:21:49.478Z,21.50
2022-12-09T07:24:19.550Z,21.00
2022-12-09T07:26:48.513Z,22.00
2022-12-09T07:29:18.648Z,22.25
2022-12-09T07:31:48.758Z,20.25
2022-12-09T07:34:17.639Z,20.75
2022-12-09T07:36:46.679Z,21.75
2022-12-09T07:39:17.283Z,23.25
2022-12-09T07:41:49.786Z,22.00
2022-12-09T07:44:18.204Z,21.75
2022-12-09T07:46:47.198Z,21.33
2022-12-09T07:49:15.985Z,21.50
2022-12-09T07:51:46.457Z,20.75
2022-12-09T07:54:16.425Z,21.00
2022-12-09T07:56:45.668Z,21.50
2022-12-09T07:59:15.329Z,21.50
2022-12-09T08:01:44.564Z,20.75
2022-12-09T08:04:13.391Z,21.50
2022-12-09T08:06:42.641Z,22.00
2022-12-09T08:09:13.327Z,20.50
2022-12-09T08:11:42.618Z,21.50
2022-12-09T08:14:12.978Z,21.50
2022-12-09T08:16:43.600Z,21.67
2022-12-09T08:19:12.812Z,23.50
2022-12-09T08:21:42.560Z,21.50
2022-12-09T08:24:12.633Z,21.33
2022-12-09T08:26:42.670Z,22.00
2022-12-09T08:29:13.451Z,21.67
2022-12-09T08:31:44.280Z,21.75
2022-12-09T08:34:14.446Z,20.75
2022-12-09T08:36:43.424Z,20.75
2022-12-09T08:39:13.911Z,22.67
2022-12-09T08:41:43.302Z,21.75
2022-12-09T08:44:17.193Z,19.33
2022-12-09T08:46:49.196Z,23.00
2022-12-09T08:49:20.341Z,22.00
2022-12-09T08:51:50.916Z,21.50
2022-12-09T08:54:20.841Z,20.50
2022-12-09T08:56:54.385Z,20.50
2022-12-09T08:59:25.279Z,19.25
2022-12-09T09:01:54.762Z,22.75
2022-12-09T09:04:25.026Z,21.33
2022-12-09T09:06:54.685Z,19.50
2022-12-09T09:09:23.679Z,18.75
2022-12-09T09:11:58.606Z,20.00
2022-12-09T09:14:44.589Z,21.00
2022-12-09T09:17:17.898Z,19.00
2022-12-09T09:19:46.419Z,20.75
2022-12-09T09:22:15.126Z,22.25
2022-12-09T09:24:44.302Z,20.25
2022-12-09T09:27:12.963Z,20.00
2022-12-09T09:29:43.194Z,20.33
2022-12-09T09:32:12.415Z,20.75
2022-12-09T09:34:40.947Z,20.50
2022-12-09T09:37:10.829Z,20.75
2022-12-09T09:39:39.318Z,18.75
2022-12-09T09:42:15.939Z,22.00
2022-12-09T09:44:49.386Z,19.25
2022-12-09T09:47:37.893Z,20.33
2022-12-09T09:50:38.000Z,20.67
2022-12-09T09:53:27.560Z,20.00
2022-12-09T09:56:05.927Z,17.50
2022-12-09T09:58:50.998Z,19.00
2022-12-09T10:01:21.024Z,18.00
2022-12-09T10:04:22.082Z,18.25
2022-12-09T10:07:16.338Z,19.00
2022-12-09T10:10:11.309Z,19.25
2022-12-09T10:13:02.776Z,18.00
2022-12-09T10:15:42.304Z,17.75
2022-12-09T10:18:22.956Z,17.50
2022-12-09T10:20:53.084Z,19.75
2022-12-09T10:23:22.564Z,17.50
2022-12-09T10:25:54.106Z,16.75
2022-12-09T10:28:30.012Z,17.67
2022-12-09T10:30:59.118Z,16.50
2022-12-09T10:33:35.142Z,17.00
2022-12-09T10:36:05.020Z,15.50
2022-12-09T10:38:38.981Z,17.00
2022-12-09T10:42:05.423Z,17.75
2022-12-09T10:44:34.106Z,15.50
2022-12-09T10:47:08.812Z,16.50
2022-12-09T10:49:37.217Z,17.00
2022-12-09T10:52:08.511Z,15.25
2022-12-09T10:54:40.910Z,15.00
2022-12-09T10:57:12.843Z,15.25
2022-12-09T10:59:43.743Z,15.25
2022-12-09T11:02:12.243Z,15.50
2022-12-09T11:04:43.169Z,15.00
2022-12-09T11:07:12.769Z,15.00
2022-12-09T11:09:50.641Z,15.00
2022-12-09T11:12:31.183Z,15.50
2022-12-09T11:15:07.528Z,15.00
2022-12-09T11:17:40.074Z,15.00
2022-12-09T11:20:12.270Z,15.25
2022-12-09T11:22:45.186Z,15.50
2022-12-09T11:25:15.744Z,15.75
2022-12-09T11:27:47.396Z,15.33
2022-12-09T11:30:23.507Z,15.25
2022-12-09T11:33:14.298Z,16.25
2022-12-09T11:35:45.952Z,15.25
2022-12-09T11:38:36.167Z,15.25
2022-12-09T11:41:06.906Z,15.25
2022-12-09T11:43:50.270Z,15.50
2022-12-09T11:46:21.045Z,15.00
2022-12-09T11:49:06.675Z,16.00
2022-12-09T11:51:42.259Z,15.25
2022-12-09T11:54:17.047Z,14.00
2022-12-09T11:56:46.017Z,15.25
2022-12-09T11:59:18.458Z,16.75
2022-12-09T12:02:07.203Z,15.25
2022-12-09T12:04:42.252Z,16.25
2022-12-09T12:07:19.486Z,15.00
2022-12-09T12:09:54.734Z,15.25
2022-12-09T12:12:39.734Z,15.33
2022-12-09T12:15:16.578Z,16.50
2022-12-09T12:17:50.627Z,16.25
2022-12-09T12:20:19.295Z,15.00
2022-12-09T12:22:59.648Z,16.50
2022-12-09T12:25:30.815Z,15.33
2022-12-09T12:28:58.060Z,15.75
2022-12-09T12:32:20.578Z,13.75
2022-12-09T12:35:27.340Z,15.50
2022-12-09T12:38:26.437Z,17.00
2022-12-09T12:41:25.328Z,15.25
2022-12-09T12:44:29.097Z,15.50
2022-12-09T12:47:21.603Z,16.50
2022-12-09T12:50:25.365Z,14.00
2022-12-09T12:53:11.214Z,15.50
2022-12-09T12:55:42.647Z,16.75
2022-12-09T12:58:36.666Z,15.25
2022-12-09T13:01:25.665Z,15.50
2022-12-09T13:04:21.557Z,15.00
2022-12-09T13:07:08.776Z,15.50
2022-12-09T13:09:42.412Z,15.00
2022-12-09T13:12:18.292Z,15.50
2022-12-09T13:14:55.058Z,15.33
2022-12-09T13:17:28.088Z,15.50
2022-12-09T13:20:00.421Z,15.00
2022-12-09T13:22:44.184Z,16.75
2022-12-09T13:25:20.997Z,17.25
2022-12-09T13:28:01.408Z,16.75
2022-12-09T13:30:56.002Z,14.50
2022-12-09T13:33:42.938Z,16.25
2022-12-09T13:36:22.858Z,15.33
2022-12-09T13:38:51.604Z,16.50
2022-12-09T13:41:52.188Z,16.00
2022-12-09T13:44:21.628Z,18.00
2022-12-09T13:46:49.818Z,16.00
2022-12-09T13:49:26.370Z,15.25
2022-12-09T13:51:56.306Z,15.67
2022-12-09T13:54:27.809Z,16.25
2022-12-09T13:57:07.908Z,16.75
2022-12-09T13:59:40.059Z,15.33
2022-12-09T14:02:36.631Z,16.50
2022-12-09T14:05:14.568Z,15.00
2022-12-09T14:07:48.576Z,15.25
2022-12-09T14:10:41.051Z,16.25
2022-12-09T14:13:21.969Z,16.50
2022-12-09T14:16:10.952Z,16.25
2022-12-09T14:18:40.220Z,15.25
2022-12-09T14:21:19.119Z,16.50
2022-12-09T14:24:11.669Z,15.50
2022-12-09T14:27:00.347Z,15.25
2022-12-09T14:29:50.116Z,15.00
2022-12-09T14:32:36.990Z,15.00
2022-12-09T14:35:10.916Z,15.50
2022-12-09T14:37:52.298Z,15.50
2022-12-09T14:40:38.935Z,15.00
2022-12-09T14:43:28.956Z,14.25
2022-12-09T14:46:18.770Z,15.50
2022-12-09T14:48:59.244Z,16.50
2022-12-09T14:51:27.525Z,18.33
2022-12-09T14:54:03.827Z,17.50
2022-12-09T14:56:33.912Z,16.50
2022-12-09T14:59:19.018Z,18.25
2022-12-09T15:02:01.808Z,17.75
2022-12-09T15:04:33.918Z,19.00
2022-12-09T15:07:18.604Z,18.00
2022-12-09T15:09:55.800Z,19.00
2022-12-09T15:12:40.991Z,17.67
2022-12-09T15:15:37.919Z,19.50
2022-12-09T15:18:08.021Z,17.00
2022-12-09T15:20:41.861Z,18.00
2022-12-09T15:23:35.943Z,17.00
2022-12-09T15:26:19.270Z,18.25
2022-12-09T15:28:49.531Z,17.75
2022-12-09T15:31:21.312Z,19.25
2022-12-09T15:33:52.011Z,19.00
2022-12-09T15:36:27.311Z,17.00
2022-12-09T15:39:03.629Z,17.75
2022-12-09T15:42:03.741Z,18.00
2022-12-09T15:44:55.159Z,18.00
2022-12-09T15:47:36.381Z,18.25
2022-12-09T15:50:15.604Z,17.00
2022-12-09T15:53:01.090Z,17.50
2022-12-09T15:55:37.151Z,16.00
2022-12-09T15:58:07.712Z,18.00
2022-12-09T16:00:41.101Z,17.50
2022-12-09T16:03:09.691Z,16.67
2022-12-09T16:05:41.763Z,16.50
2022-12-09T16:08:10.973Z,16.25
2022-12-09T16:10:52.239Z,16.25
2022-12-09T16:13:21.825Z,15.33
2022-12-09T16:15:56.701Z,17.00
2022-12-09T16:18:30.608Z,16.00
2022-12-09T16:21:25.817Z,16.75
2022-12-09T16:23:57.520Z,16.00
2022-12-09T16:26:32.381Z,15.33
2022-12-09T16:29:04.530Z,18.00
2022-12-09T16:31:34.312Z,17.75
2022-12-09T16:34:03.881Z,15.50
2022-12-09T16:36:32.620Z,16.50
2022-12-09T16:39:12.840Z,16.67
2022-12-09T16:41:52.946Z,17.25
2022-12-09T16:44:34.663Z,15.00
2022-12-09T16:47:14.913Z,16.25
2022-12-09T16:49:46.934Z,16.75
2022-12-09T16:52:19.871Z,15.50
2022-12-09T16:54:49.510Z,16.50
2022-12-09T16:57:19.419Z,15.25
2022-12-09T16:59:49.129Z,15.25
2022-12-09T17:02:39.780Z,14.25
2022-12-09T17:05:09.032Z,15.00
2022-12-09T17:07:37.803Z,15.25
2022-12-09T17:10:08.163Z,15.25
2022-12-09T17:12:36.481Z,16.67
2022-12-09T17:15:07.559Z,15.25
2022-12-09T17:17:35.749Z,15.50
2022-12-09T17:20:04.493Z,15.25
2022-12-09T17:22:32.672Z,15.00
2022-12-09T17:25:03.450Z,15.00
2022-12-09T17:27:31.720Z,16.00
2022-12-09T17:30:00.280Z,15.00
2022-12-09T17:32:28.802Z,15.00
2022-12-09T17:34:57.288Z,16.75
2022-12-09T17:37:25.518Z,15.25
2022-12-09T17:40:01.575Z,15.25
2022-12-09T17:42:31.420Z,15.25
2022-12-09T17:44:59.894Z,15.25
2022-12-09T17:47:28.834Z,15.00
2022-12-09T17:49:57.299Z,15.33
2022-12-09T17:52:25.559Z,13.33
2022-12-09T17:54:53.919Z,14.00
2022-12-09T17:57:22.620Z,15.75
2022-12-09T17:59:51.038Z,15.25
2022-12-09T18:02:19.263Z,13.67
2022-12-09T18:04:47.752Z,14.25
2022-12-09T18:07:15.797Z,15.00
2022-12-09T18:09:48.687Z,15.25
2022-12-09T18:12:21.349Z,14.00
2022-12-09T18:14:50.088Z,15.25
2022-12-09T18:17:18.199Z,15.00
2022-12-09T18:19:46.681Z,15.00
2022-12-09T18:22:14.911Z,15.75
2022-12-09T18:24:43.399Z,15.25
2022-12-09T18:27:11.547Z,17.00
2022-12-09T18:29:43.758Z,15.25
2022-12-09T18:32:13.698Z,17.50
2022-12-09T18:34:43.004Z,16.67
2022-12-09T18:37:12.305Z,14.00
2022-12-09T18:39:40.819Z,17.33
2022-12-09T18:42:11.043Z,16.75
2022-12-09T18:44:39.465Z,16.67
2022-12-09T18:47:08.164Z,16.25
2022-12-09T18:49:37.298Z,17.25
2022-12-09T18:52:05.476Z,16.75
2022-12-09T18:54:33.835Z,16.50
2022-12-09T18:57:02.229Z,15.00
2022-12-09T18:59:31.564Z,16.00
2022-12-09T19:01:59.867Z,16.50
2022-12-09T19:04:29.424Z,16.25
2022-12-09T19:07:00.619Z,16.50
2022-12-09T19:09:33.656Z,16.50
2022-12-09T19:12:30.071Z,15.50
2022-12-09T19:14:52.234Z,16.50
2022-12-09T19:17:20.533Z,17.00
2022-12-09T19:19:49.938Z,16.00
2022-12-09T19:22:17.909Z,16.67
2022-12-09T19:24:46.377Z,17.33
2022-12-09T19:27:14.663Z,17.00
2022-12-09T19:29:43.106Z,16.67
2022-12-09T19:32:36.697Z,17.00
2022-12-09T19:34:59.580Z,16.50
2022-12-09T19:37:27.714Z,15.67
2022-12-09T19:39:56.116Z,16.75
2022-12-09T19:42:24.225Z,15.33
2022-12-09T19:45:01.539Z,16.00
2022-12-09T19:47:32.027Z,17.00
2022-12-09T19:50:00.486Z,17.00
2022-12-09T19:52:28.554Z,16.50
2022-12-09T19:54:58.253Z,17.50
2022-12-09T19:57:26.246Z,15.25
2022-12-09T19:59:54.718Z,16.25
2022-12-09T20:02:22.841Z,15.25
2022-12-09T20:04:51.685Z,16.25
2022-12-09T20:07:20.491Z,16.00
2022-12-09T20:09:49.311Z,17.25
2022-12-09T20:12:17.632Z,17.67
2022-12-09T20:14:46.166Z,17.00
2022-12-09T20:17:14.239Z,16.33
2022-12-09T20:19:42.786Z,16.67
2022-12-09T20:22:10.798Z,18.50
2022-12-09T20:24:39.288Z,19.00
2022-12-09T20:27:07.364Z,18.00
2022-12-09T20:29:38.109Z,19.00
2022-12-09T20:32:13.616Z,19.50
2022-12-09T20:34:42.094Z,18.75
2022-12-09T20:37:11.166Z,20.33
2022-12-09T20:39:39.856Z,19.25
2022-12-09T20:42:07.926Z,18.67
2022-12-09T20:44:36.348Z,19.00
2022-12-09T20:47:04.383Z,19.00
2022-12-09T20:49:32.856Z,18.00
2022-12-09T20:52:01.023Z,16.75
2022-12-09T20:54:29.514Z,18.50
2022-12-09T20:56:57.654Z,17.67
2022-12-09T20:59:26.214Z,20.50
2022-12-09T21:01:56.098Z,18.00
2022-12-09T21:04:24.916Z,17.50
2022-12-09T21:06:53.134Z,17.00
2022-12-09T21:09:23.065Z,17.50
2022-12-09T21:11:51.531Z,17.00
2022-12-09T21:14:20.217Z,19.25
2022-12-09T21:16:50.791Z,17.50
2022-12-09T21:19:30.196Z,17.50
2022-12-09T21:21:58.697Z,19.25
2022-12-09T21:24:29.078Z,19.50
2022-12-09T21:26:57.423Z,17.75
2022-12-09T21:29:31.625Z,18.00
2022-12-09T21:32:01.537Z,20.75
2022-12-09T21:34:30.016Z,17.75
2022-12-09T21:36:58.206Z,18.00
2022-12-09T21:39:28.300Z,17.33
2022-12-09T21:41:56.394Z,17.75
2022-12-09T21:44:25.838Z,19.25
2022-12-09T21:46:54.282Z,17.75
2022-12-09T21:49:22.856Z,19.75
2022-12-09T21:51:50.881Z,19.00
2022-12-09T21:54:19.383Z,19.25
2022-12-09T21:56:47.480Z,19.25
2022-12-09T21:59:15.916Z,20.75
2022-12-09T22:01:44.127Z,20.50
2022-12-09T22:04:16.368Z,21.25
2022-12-09T22:06:46.981Z,23.00
2022-12-09T22:09:16.715Z,21.75
2022-12-09T22:11:44.740Z,24.50
2022-12-09T22:14:14.335Z,21.25
2022-12-09T22:16:44.799Z,21.75
2022-12-09T22:19:18.537Z,20.75
2022-12-09T22:21:47.188Z,21.75
2022-12-09T22:24:16.884Z,21.50
2022-12-09T22:26:45.542Z,24.25
2022-12-09T22:29:15.923Z,24.33
2022-12-09T22:31:44.982Z,23.25
2022-12-09T22:34:19.361Z,24.00
2022-12-09T22:36:49.019Z,21.33
2022-12-09T22:39:21.962Z,21.50
2022-12-09T22:41:50.667Z,22.00
2022-12-09T22:44:19.739Z,23.00
2022-12-09T22:46:48.576Z,24.33
2022-12-09T22:49:17.786Z,23.50
2022-12-09T22:51:46.895Z,24.25
2022-12-09T22:54:15.733Z,23.50
2022-12-09T22:56:44.777Z,25.00
2022-12-09T22:59:14.272Z,25.00
2022-12-09T23:01:47.606Z,23.25
2022-12-09T23:04:18.797Z,24.50
2022-12-09T23:06:46.886Z,24.33
2022-12-09T23:09:22.315Z,23.33
2022-12-09T23:11:51.999Z,24.50
2022-12-09T23:14:21.655Z,25.25
2022-12-09T23:16:49.753Z,26.75
2022-12-09T23:19:19.228Z,25.50
2022-12-09T23:21:48.176Z,25.67
2022-12-09T23:24:24.680Z,23.00
2022-12-09T23:26:56.578Z,23.67
2022-12-09T23:29:26.545Z,25.50
2022-12-09T23:31:54.618Z,25.50
2022-12-09T23:34:23.745Z,25.00
2022-12-09T23:36:52.644Z,24.50
2022-12-09T23:39:22.044Z,26.67
2022-12-09T23:41:50.744Z,25.75
2022-12-09T23:44:19.712Z,24.50
2022-12-09T23:46:48.210Z,25.75
2022-12-09T23:49:17.060Z,25.75
2022-12-09T23:51:45.424Z,24.00
2022-12-09T23:54:16.214Z,24.00
2022-12-09T23:56:50.000Z,24.00
2022-12-09T23:59:21.602Z,24.00
